sensor_id;sensor_type;location;lat;lon;timestamp;pressure;altitude;pressure_sealevel;temperature;humidity
16120;BME280;12670;53.502;10.252;2023-07-13T00:01:20;100916.13;;;19.06;100.00
16120;BME280;12670;53.502;10.252;2023-07-13T00:04:24;100912.78;;;19.02;100.00
16120;BME280;12670;53.502;10.252;2023-07-13T00:07:27;100915.34;;;19.04;100.00
16120;BME280;12670;53.502;10.252;2023-07-13T00:10:30;100910.44;;;18.98;100.00
16120;BME280;12670;53.502;10.252;2023-07-13T00:13:34;100912.97;;;18.88;100.00
16120;BME280;12670;53.502;10.252;2023-07-13T00:16:39;100918.88;;;18.80;100.00
16120;BME280;12670;53.502;10.252;2023-07-13T00:19:45;100912.25;;;18.73;100.00
16120;BME280;12670;53.502;10.252;2023-07-13T00:22:48;100918.25;;;18.64;100.00
16120;BME280;12670;53.502;10.252;2023-07-13T00:25:50;100922.34;;;18.70;100.00
16120;BME280;12670;53.502;10.252;2023-07-13T00:28:54;100919.13;;;18.64;100.00
16120;BME280;12670;53.502;10.252;2023-07-13T00:31:57;100916.97;;;18.57;100.00
16120;BME280;12670;53.502;10.252;2023-07-13T00:35:00;100904.53;;;18.56;100.00
16120;BME280;12670;53.502;10.252;2023-07-13T00:38:04;100898.84;;;18.48;100.00
16120;BME280;12670;53.502;10.252;2023-07-13T00:41:07;100901.75;;;18.45;100.00
16120;BME280;12670;53.502;10.252;2023-07-13T00:44:13;100906.69;;;18.38;100.00
16120;BME280;12670;53.502;10.252;2023-07-13T00:47:16;100907.78;;;18.35;100.00
16120;BME280;12670;53.502;10.252;2023-07-13T00:50:20;100911.34;;;18.36;100.00
16120;BME280;12670;53.502;10.252;2023-07-13T00:53:24;100914.56;;;18.28;100.00
16120;BME280;12670;53.502;10.252;2023-07-13T00:56:29;100913.69;;;18.28;100.00
16120;BME280;12670;53.502;10.252;2023-07-13T00:59:34;100908.56;;;18.25;100.00
16120;BME280;12670;53.502;10.252;2023-07-13T01:02:39;100906.50;;;18.16;100.00
16120;BME280;12670;53.502;10.252;2023-07-13T01:05:42;100912.97;;;18.13;100.00
16120;BME280;12670;53.502;10.252;2023-07-13T01:08:45;100909.31;;;18.14;100.00
16120;BME280;12670;53.502;10.252;2023-07-13T01:11:48;100914.16;;;18.09;100.00
16120;BME280;12670;53.502;10.252;2023-07-13T01:14:57;100903.41;;;18.09;100.00
16120;BME280;12670;53.502;10.252;2023-07-13T01:18:03;100908.22;;;18.04;100.00
16120;BME280;12670;53.502;10.252;2023-07-13T01:21:07;100906.53;;;18.03;100.00
16120;BME280;12670;53.502;10.252;2023-07-13T01:24:10;100913.84;;;18.01;100.00
16120;BME280;12670;53.502;10.252;2023-07-13T01:27:16;100909.75;;;17.95;100.00
16120;BME280;12670;53.502;10.252;2023-07-13T01:30:19;100904.47;;;17.94;100.00
16120;BME280;12670;53.502;10.252;2023-07-13T01:33:22;100907.16;;;17.94;100.00
16120;BME280;12670;53.502;10.252;2023-07-13T01:36:26;100910.06;;;17.91;100.00
16120;BME280;12670;53.502;10.252;2023-07-13T01:39:29;100924.66;;;17.87;100.00
16120;BME280;12670;53.502;10.252;2023-07-13T01:42:31;100916.28;;;17.78;100.00
16120;BME280;12670;53.502;10.252;2023-07-13T01:45:34;100917.56;;;17.85;100.00
16120;BME280;12670;53.502;10.252;2023-07-13T01:48:37;100911.47;;;17.83;100.00
16120;BME280;12670;53.502;10.252;2023-07-13T01:51:41;100910.25;;;17.75;100.00
16120;BME280;12670;53.502;10.252;2023-07-13T01:54:44;100918.97;;;17.78;100.00
16120;BME280;12670;53.502;10.252;2023-07-13T01:57:46;100914.97;;;17.71;100.00
16120;BME280;12670;53.502;10.252;2023-07-13T02:00:49;100921.69;;;17.64;100.00
16120;BME280;12670;53.502;10.252;2023-07-13T02:03:53;100916.19;;;17.80;100.00
16120;BME280;12670;53.502;10.252;2023-07-13T02:06:57;100920.25;;;17.85;100.00
16120;BME280;12670;53.502;10.252;2023-07-13T02:10:00;100915.31;;;17.79;100.00
16120;BME280;12670;53.502;10.252;2023-07-13T02:13:04;100914.22;;;17.82;100.00
16120;BME280;12670;53.502;10.252;2023-07-13T02:16:06;100918.13;;;17.78;100.00
16120;BME280;12670;53.502;10.252;2023-07-13T02:19:10;100921.97;;;17.87;100.00
16120;BME280;12670;53.502;10.252;2023-07-13T02:22:14;100927.78;;;17.80;100.00
16120;BME280;12670;53.502;10.252;2023-07-13T02:25:16;100918.97;;;17.78;100.00
16120;BME280;12670;53.502;10.252;2023-07-13T02:28:19;100920.88;;;17.76;100.00
16120;BME280;12670;53.502;10.252;2023-07-13T02:31:22;100919.59;;;17.82;100.00
16120;BME280;12670;53.502;10.252;2023-07-13T02:34:25;100922.63;;;17.77;100.00
16120;BME280;12670;53.502;10.252;2023-07-13T02:37:29;100924.13;;;17.81;100.00
16120;BME280;12670;53.502;10.252;2023-07-13T02:40:32;100927.34;;;17.74;100.00
16120;BME280;12670;53.502;10.252;2023-07-13T02:43:37;100917.25;;;17.77;100.00
16120;BME280;12670;53.502;10.252;2023-07-13T02:46:40;100921.53;;;17.80;100.00
16120;BME280;12670;53.502;10.252;2023-07-13T02:49:42;100913.56;;;17.66;100.00
16120;BME280;12670;53.502;10.252;2023-07-13T02:52:46;100922.34;;;17.55;100.00
16120;BME280;12670;53.502;10.252;2023-07-13T02:55:49;100921.91;;;17.61;100.00
16120;BME280;12670;53.502;10.252;2023-07-13T02:58:52;100924.28;;;17.66;100.00
16120;BME280;12670;53.502;10.252;2023-07-13T03:01:55;100927.59;;;17.69;100.00
16120;BME280;12670;53.502;10.252;2023-07-13T03:04:58;100931.91;;;17.59;100.00
16120;BME280;12670;53.502;10.252;2023-07-13T03:08:02;100934.91;;;17.67;100.00
16120;BME280;12670;53.502;10.252;2023-07-13T03:11:07;100937.47;;;17.56;100.00
16120;BME280;12670;53.502;10.252;2023-07-13T03:14:10;100935.66;;;17.69;100.00
16120;BME280;12670;53.502;10.252;2023-07-13T03:17:12;100930.41;;;17.68;100.00
16120;BME280;12670;53.502;10.252;2023-07-13T03:20:15;100930.41;;;17.68;100.00
16120;BME280;12670;53.502;10.252;2023-07-13T03:23:20;100928.59;;;17.68;100.00
16120;BME280;12670;53.502;10.252;2023-07-13T03:26:24;100930.38;;;17.55;100.00
16120;BME280;12670;53.502;10.252;2023-07-13T03:29:26;100933.19;;;17.53;100.00
16120;BME280;12670;53.502;10.252;2023-07-13T03:32:29;100928.69;;;17.54;100.00
16120;BME280;12670;53.502;10.252;2023-07-13T03:35:32;100923.72;;;17.48;100.00
16120;BME280;12670;53.502;10.252;2023-07-13T03:38:36;100930.28;;;17.56;100.00
16120;BME280;12670;53.502;10.252;2023-07-13T03:41:39;100919.31;;;17.47;100.00
16120;BME280;12670;53.502;10.252;2023-07-13T03:44:41;100920.81;;;17.51;100.00
16120;BME280;12670;53.502;10.252;2023-07-13T03:47:47;100930.25;;;17.44;100.00
16120;BME280;12670;53.502;10.252;2023-07-13T03:50:50;100938.53;;;17.53;100.00
16120;BME280;12670;53.502;10.252;2023-07-13T03:53:54;100937.03;;;17.49;100.00
16120;BME280;12670;53.502;10.252;2023-07-13T03:56:56;100937.59;;;17.54;100.00
16120;BME280;12670;53.502;10.252;2023-07-13T03:59:59;100931.91;;;17.59;100.00
16120;BME280;12670;53.502;10.252;2023-07-13T04:03:02;100943.56;;;17.58;100.00
16120;BME280;12670;53.502;10.252;2023-07-13T04:06:07;100943.38;;;17.48;100.00
16120;BME280;12670;53.502;10.252;2023-07-13T04:09:12;100945.50;;;17.56;100.00
16120;BME280;12670;53.502;10.252;2023-07-13T04:12:15;100935.09;;;17.64;100.00
16120;BME280;12670;53.502;10.252;2023-07-13T04:15:18;100937.78;;;17.64;100.00
16120;BME280;12670;53.502;10.252;2023-07-13T04:18:21;100934.19;;;17.65;100.00
16120;BME280;12670;53.502;10.252;2023-07-13T04:21:23;100936.59;;;17.43;100.00
16120;BME280;12670;53.502;10.252;2023-07-13T04:24:27;100934.59;;;17.59;100.00
16120;BME280;12670;53.502;10.252;2023-07-13T04:27:30;100936.75;;;17.67;100.00
16120;BME280;12670;53.502;10.252;2023-07-13T04:30:33;100944.47;;;17.71;100.00
16120;BME280;12670;53.502;10.252;2023-07-13T04:33:36;100935.66;;;17.69;100.00
16120;BME280;12670;53.502;10.252;2023-07-13T04:36:38;100941.41;;;17.77;100.00
16120;BME280;12670;53.502;10.252;2023-07-13T04:39:42;100938.31;;;17.83;100.00
16120;BME280;12670;53.502;10.252;2023-07-13T04:42:45;100933.75;;;17.71;100.00
16120;BME280;12670;53.502;10.252;2023-07-13T04:45:49;100922.16;;;17.71;100.00
16120;BME280;12670;53.502;10.252;2023-07-13T04:48:52;100920.53;;;17.68;100.00
16120;BME280;12670;53.502;10.252;2023-07-13T04:51:55;100921.91;;;17.61;100.00
16120;BME280;12670;53.502;10.252;2023-07-13T04:55:00;100922.09;;;17.72;100.00
16120;BME280;12670;53.502;10.252;2023-07-13T04:58:03;100930.56;;;17.79;100.00
16120;BME280;12670;53.502;10.252;2023-07-13T05:01:06;100921.97;;;17.87;100.00
16120;BME280;12670;53.502;10.252;2023-07-13T05:04:10;100926.91;;;17.93;100.00
16120;BME280;12670;53.502;10.252;2023-07-13T05:07:13;100928.53;;;17.82;100.00
16120;BME280;12670;53.502;10.252;2023-07-13T05:10:17;100934.88;;;18.07;100.00
16120;BME280;12670;53.502;10.252;2023-07-13T05:13:21;100946.25;;;17.98;100.00
16120;BME280;12670;53.502;10.252;2023-07-13T05:16:26;100947.97;;;18.11;100.00
16120;BME280;12670;53.502;10.252;2023-07-13T05:19:29;100947.13;;;18.24;100.00
16120;BME280;12670;53.502;10.252;2023-07-13T05:22:32;100953.13;;;18.27;100.00
16120;BME280;12670;53.502;10.252;2023-07-13T05:25:37;100963.97;;;18.38;100.00
16120;BME280;12670;53.502;10.252;2023-07-13T05:28:40;100963.66;;;18.43;100.00
16120;BME280;12670;53.502;10.252;2023-07-13T05:31:43;100968.94;;;18.19;100.00
16120;BME280;12670;53.502;10.252;2023-07-13T05:34:46;100970.00;;;18.29;100.00
16120;BME280;12670;53.502;10.252;2023-07-13T05:37:48;100974.16;;;18.46;100.00
16120;BME280;12670;53.502;10.252;2023-07-13T05:40:54;100978.91;;;18.43;100.00
16120;BME280;12670;53.502;10.252;2023-07-13T05:43:57;100973.53;;;18.43;100.00
16120;BME280;12670;53.502;10.252;2023-07-13T05:47:00;100976.31;;;18.54;100.00
16120;BME280;12670;53.502;10.252;2023-07-13T05:50:03;100979.53;;;18.84;100.00
16120;BME280;12670;53.502;10.252;2023-07-13T05:53:07;100982.41;;;18.81;100.00
16120;BME280;12670;53.502;10.252;2023-07-13T05:56:11;100976.09;;;18.82;100.00
16120;BME280;12670;53.502;10.252;2023-07-13T05:59:14;100974.59;;;18.78;100.00
16120;BME280;12670;53.502;10.252;2023-07-13T06:02:16;100978.53;;;18.85;100.00
16120;BME280;12670;53.502;10.252;2023-07-13T06:05:19;100990.19;;;19.10;100.00
16120;BME280;12670;53.502;10.252;2023-07-13T06:08:22;100986.66;;;19.33;100.00
16120;BME280;12670;53.502;10.252;2023-07-13T06:11:26;100991.97;;;19.22;100.00
16120;BME280;12670;53.502;10.252;2023-07-13T06:14:31;100989.72;;;19.16;100.00
16120;BME280;12670;53.502;10.252;2023-07-13T06:17:34;100990.31;;;19.32;100.00
16120;BME280;12670;53.502;10.252;2023-07-13T06:20:36;100987.75;;;19.07;100.00
16120;BME280;12670;53.502;10.252;2023-07-13T06:23:39;100989.53;;;19.19;100.00
16120;BME280;12670;53.502;10.252;2023-07-13T06:26:43;100993.06;;;19.43;100.00
16120;BME280;12670;53.502;10.252;2023-07-13T06:29:46;100997.31;;;19.35;100.00
16120;BME280;12670;53.502;10.252;2023-07-13T06:32:49;100990.38;;;19.43;100.00
16120;BME280;12670;53.502;10.252;2023-07-13T06:35:52;100998.06;;;19.61;100.00
16120;BME280;12670;53.502;10.252;2023-07-13T06:38:56;100999.19;;;19.58;100.00
16120;BME280;12670;53.502;10.252;2023-07-13T06:42:00;101003.31;;;19.86;100.00
16120;BME280;12670;53.502;10.252;2023-07-13T06:45:03;101006.34;;;19.58;100.00
16120;BME280;12670;53.502;10.252;2023-07-13T06:48:06;100998.59;;;19.66;100.00
16120;BME280;12670;53.502;10.252;2023-07-13T06:51:09;101001.34;;;19.77;100.00
16120;BME280;12670;53.502;10.252;2023-07-13T06:54:13;100997.28;;;19.72;100.00
16120;BME280;12670;53.502;10.252;2023-07-13T06:57:17;100994.53;;;19.95;100.00
16120;BME280;12670;53.502;10.252;2023-07-13T07:00:20;100993.81;;;20.05;100.00
16120;BME280;12670;53.502;10.252;2023-07-13T07:03:22;101005.47;;;20.05;100.00
16120;BME280;12670;53.502;10.252;2023-07-13T07:06:25;101004.28;;;19.85;100.00
16120;BME280;12670;53.502;10.252;2023-07-13T07:09:29;101011.94;;;19.67;100.00
16120;BME280;12670;53.502;10.252;2023-07-13T07:12:34;101007.72;;;19.87;100.00
16120;BME280;12670;53.502;10.252;2023-07-13T07:15:36;101012.88;;;19.90;100.00
16120;BME280;12670;53.502;10.252;2023-07-13T07:18:39;101013.81;;;19.54;100.00
16120;BME280;12670;53.502;10.252;2023-07-13T07:21:42;101017.03;;;19.83;100.00
16120;BME280;12670;53.502;10.252;2023-07-13T07:24:45;101018.31;;;20.13;100.00
16120;BME280;12670;53.502;10.252;2023-07-13T07:27:49;101012.16;;;19.88;100.00
16120;BME280;12670;53.502;10.252;2023-07-13T07:30:55;101016.50;;;20.13;100.00
16120;BME280;12670;53.502;10.252;2023-07-13T07:34:01;101015.19;;;20.30;100.00
16120;BME280;12670;53.502;10.252;2023-07-13T07:37:04;101021.28;;;20.21;100.00
16120;BME280;12670;53.502;10.252;2023-07-13T07:40:10;101030.88;;;19.90;100.00
16120;BME280;12670;53.502;10.252;2023-07-13T07:43:17;101014.66;;;20.14;100.00
16120;BME280;12670;53.502;10.252;2023-07-13T07:46:20;101014.66;;;20.14;100.00
16120;BME280;12670;53.502;10.252;2023-07-13T07:49:23;101017.13;;;20.28;100.00
16120;BME280;12670;53.502;10.252;2023-07-13T07:52:25;101011.50;;;20.31;100.00
16120;BME280;12670;53.502;10.252;2023-07-13T07:55:28;101004.94;;;20.46;100.00
16120;BME280;12670;53.502;10.252;2023-07-13T07:58:35;101006.19;;;20.54;100.00
16120;BME280;12670;53.502;10.252;2023-07-13T08:01:41;101014.00;;;20.57;100.00
16120;BME280;12670;53.502;10.252;2023-07-13T08:05:05;101021.38;;;20.55;100.00
16120;BME280;12670;53.502;10.252;2023-07-13T08:08:11;101018.50;;;20.45;100.00
16120;BME280;12670;53.502;10.252;2023-07-13T08:11:13;101012.06;;;20.59;100.00
16120;BME280;12670;53.502;10.252;2023-07-13T08:14:20;101007.38;;;20.49;100.00
16120;BME280;12670;53.502;10.252;2023-07-13T08:17:23;101011.19;;;20.69;100.00
16120;BME280;12670;53.502;10.252;2023-07-13T08:20:26;101008.81;;;20.42;100.00
16120;BME280;12670;53.502;10.252;2023-07-13T08:23:29;101009.88;;;20.64;100.00
16120;BME280;12670;53.502;10.252;2023-07-13T08:26:34;101013.28;;;20.88;100.00
16120;BME280;12670;53.502;10.252;2023-07-13T08:29:38;101009.44;;;21.36;98.91
16120;BME280;12670;53.502;10.252;2023-07-13T08:32:41;101007.66;;;21.46;97.29
16120;BME280;12670;53.502;10.252;2023-07-13T08:35:45;101006.59;;;21.37;94.17
16120;BME280;12670;53.502;10.252;2023-07-13T08:38:48;101003.03;;;21.25;96.13
16120;BME280;12670;53.502;10.252;2023-07-13T08:41:57;101007.09;;;21.20;97.47
16120;BME280;12670;53.502;10.252;2023-07-13T08:45:08;101017.03;;;21.63;94.21
16120;BME280;12670;53.502;10.252;2023-07-13T08:48:20;101009.50;;;21.45;97.54
16120;BME280;12670;53.502;10.252;2023-07-13T08:51:37;101010.72;;;21.52;96.28
16120;BME280;12670;53.502;10.252;2023-07-13T08:54:44;101016.50;;;21.48;96.45
16120;BME280;12670;53.502;10.252;2023-07-13T08:57:54;101012.50;;;21.20;97.45
16120;BME280;12670;53.502;10.252;2023-07-13T09:01:05;101015.22;;;21.09;96.88
16120;BME280;12670;53.502;10.252;2023-07-13T09:04:14;101016.38;;;21.27;98.58
16120;BME280;12670;53.502;10.252;2023-07-13T09:07:26;101010.84;;;21.51;94.57
16120;BME280;12670;53.502;10.252;2023-07-13T09:10:37;101007.81;;;21.22;91.79
16120;BME280;12670;53.502;10.252;2023-07-13T09:13:50;101018.75;;;21.32;93.13
16120;BME280;12670;53.502;10.252;2023-07-13T09:16:59;101022.06;;;21.35;93.05
16120;BME280;12670;53.502;10.252;2023-07-13T09:20:04;101012.47;;;21.42;89.81
16120;BME280;12670;53.502;10.252;2023-07-13T09:23:15;101008.56;;;21.35;88.79
16120;BME280;12670;53.502;10.252;2023-07-13T09:26:21;101008.72;;;21.87;89.32
16120;BME280;12670;53.502;10.252;2023-07-13T09:29:28;101018.28;;;22.53;89.24
16120;BME280;12670;53.502;10.252;2023-07-13T09:32:33;101010.34;;;22.61;85.81
16120;BME280;12670;53.502;10.252;2023-07-13T09:35:36;101016.09;;;22.17;84.28
16120;BME280;12670;53.502;10.252;2023-07-13T09:38:39;101015.34;;;22.15;85.28
16120;BME280;12670;53.502;10.252;2023-07-13T09:41:47;101014.78;;;21.79;86.38
16120;BME280;12670;53.502;10.252;2023-07-13T09:44:53;101010.84;;;22.04;90.95
16120;BME280;12670;53.502;10.252;2023-07-13T09:48:04;101011.97;;;22.01;88.60
16120;BME280;12670;53.502;10.252;2023-07-13T09:51:13;101006.09;;;21.96;88.85
16120;BME280;12670;53.502;10.252;2023-07-13T09:54:20;101014.47;;;21.93;88.11
16120;BME280;12670;53.502;10.252;2023-07-13T09:57:27;101015.91;;;21.97;86.20
16120;BME280;12670;53.502;10.252;2023-07-13T10:00:57;101010.84;;;22.04;87.22
16120;BME280;12670;53.502;10.252;2023-07-13T10:04:02;101028.47;;;22.40;86.06
16120;BME280;12670;53.502;10.252;2023-07-13T10:07:12;101016.22;;;22.67;85.63
16120;BME280;12670;53.502;10.252;2023-07-13T10:10:30;101020.19;;;22.62;85.05
16120;BME280;12670;53.502;10.252;2023-07-13T10:13:34;101020.31;;;23.22;82.61
16120;BME280;12670;53.502;10.252;2023-07-13T10:16:39;101032.00;;;23.42;78.43
16120;BME280;12670;53.502;10.252;2023-07-13T10:19:47;101010.81;;;23.86;78.86
16120;BME280;12670;53.502;10.252;2023-07-13T10:22:53;101003.00;;;23.92;76.36
16120;BME280;12670;53.502;10.252;2023-07-13T10:25:58;101006.69;;;24.01;72.34
16120;BME280;12670;53.502;10.252;2023-07-13T10:29:05;101002.75;;;24.52;67.24
16120;BME280;12670;53.502;10.252;2023-07-13T10:32:12;101009.38;;;23.91;67.29
16120;BME280;12670;53.502;10.252;2023-07-13T10:35:20;101012.34;;;23.40;70.30
16120;BME280;12670;53.502;10.252;2023-07-13T10:38:24;101013.16;;;23.11;72.38
16120;BME280;12670;53.502;10.252;2023-07-13T10:41:31;101012.41;;;22.69;74.35
16120;BME280;12670;53.502;10.252;2023-07-13T10:44:34;101010.97;;;22.75;73.52
16120;BME280;12670;53.502;10.252;2023-07-13T10:47:37;101007.88;;;22.28;73.67
16120;BME280;12670;53.502;10.252;2023-07-13T10:50:45;101002.53;;;21.96;75.45
16120;BME280;12670;53.502;10.252;2023-07-13T10:54:15;101010.34;;;22.10;78.09
16120;BME280;12670;53.502;10.252;2023-07-13T10:57:21;101014.78;;;22.11;75.60
16120;BME280;12670;53.502;10.252;2023-07-13T11:00:24;101010.97;;;22.02;73.58
16120;BME280;12670;53.502;10.252;2023-07-13T11:03:28;101008.56;;;22.41;73.47
16120;BME280;12670;53.502;10.252;2023-07-13T11:06:37;101017.88;;;23.38;75.52
16120;BME280;12670;53.502;10.252;2023-07-13T11:09:41;101013.91;;;24.20;73.98
16120;BME280;12670;53.502;10.252;2023-07-13T11:12:53;101005.63;;;24.41;72.97
16120;BME280;12670;53.502;10.252;2023-07-13T11:15:56;101006.44;;;24.88;67.27
16120;BME280;12670;53.502;10.252;2023-07-13T11:19:25;101015.56;;;24.60;62.94
16120;BME280;12670;53.502;10.252;2023-07-13T11:22:44;101008.09;;;24.34;62.53
16120;BME280;12670;53.502;10.252;2023-07-13T11:25:49;101007.84;;;24.65;68.02
16120;BME280;12670;53.502;10.252;2023-07-13T11:28:51;101012.53;;;25.00;64.99
16120;BME280;12670;53.502;10.252;2023-07-13T11:31:56;101014.97;;;24.66;61.36
16120;BME280;12670;53.502;10.252;2023-07-13T11:34:59;101017.00;;;24.54;65.46
16120;BME280;12670;53.502;10.252;2023-07-13T11:38:12;101017.59;;;24.48;63.56
16120;BME280;12670;53.502;10.252;2023-07-13T11:41:17;101016.44;;;24.88;62.28
16120;BME280;12670;53.502;10.252;2023-07-13T11:44:23;101017.00;;;25.46;59.50
16120;BME280;12670;53.502;10.252;2023-07-13T11:47:26;101018.69;;;25.65;57.01
16120;BME280;12670;53.502;10.252;2023-07-13T11:50:30;101012.34;;;25.92;53.67
16120;BME280;12670;53.502;10.252;2023-07-13T11:53:49;101018.19;;;25.97;53.07
16120;BME280;12670;53.502;10.252;2023-07-13T11:56:55;101018.88;;;26.25;54.75
16120;BME280;12670;53.502;10.252;2023-07-13T12:00:11;101011.19;;;26.21;52.89
16120;BME280;12670;53.502;10.252;2023-07-13T12:03:20;101021.84;;;26.14;52.20
16120;BME280;12670;53.502;10.252;2023-07-13T12:06:27;101017.94;;;26.35;49.29
16120;BME280;12670;53.502;10.252;2023-07-13T12:09:33;101008.44;;;26.56;50.59
16120;BME280;12670;53.502;10.252;2023-07-13T12:12:46;101023.91;;;27.32;51.99
16120;BME280;12670;53.502;10.252;2023-07-13T12:15:49;101014.69;;;27.25;48.66
16120;BME280;12670;53.502;10.252;2023-07-13T12:18:54;101008.19;;;26.84;49.37
16120;BME280;12670;53.502;10.252;2023-07-13T12:21:58;101009.97;;;26.59;50.68
16120;BME280;12670;53.502;10.252;2023-07-13T12:25:04;101008.81;;;26.18;50.92
16120;BME280;12670;53.502;10.252;2023-07-13T12:28:20;101011.16;;;25.59;52.37
16120;BME280;12670;53.502;10.252;2023-07-13T12:31:29;101019.13;;;25.25;52.07
16120;BME280;12670;53.502;10.252;2023-07-13T12:34:32;101028.81;;;25.00;52.30
16120;BME280;12670;53.502;10.252;2023-07-13T12:37:52;101068.25;;;24.57;54.71
16120;BME280;12670;53.502;10.252;2023-07-13T12:40:56;101101.69;;;22.79;72.84
16120;BME280;12670;53.502;10.252;2023-07-13T12:43:59;101120.44;;;21.86;82.44
16120;BME280;12670;53.502;10.252;2023-07-13T12:47:05;101119.44;;;21.21;91.33
16120;BME280;12670;53.502;10.252;2023-07-13T12:50:15;101139.19;;;20.88;96.82
16120;BME280;12670;53.502;10.252;2023-07-13T12:53:21;101153.66;;;20.52;100.00
16120;BME280;12670;53.502;10.252;2023-07-13T12:56:27;101158.84;;;20.55;100.00
16120;BME280;12670;53.502;10.252;2023-07-13T12:59:32;101171.31;;;20.56;100.00
16120;BME280;12670;53.502;10.252;2023-07-13T13:02:38;101176.50;;;20.59;100.00
16120;BME280;12670;53.502;10.252;2023-07-13T13:05:41;101189.69;;;20.50;100.00
16120;BME280;12670;53.502;10.252;2023-07-13T13:08:47;101180.44;;;20.42;100.00
16120;BME280;12670;53.502;10.252;2023-07-13T13:11:52;101180.88;;;20.48;100.00
16120;BME280;12670;53.502;10.252;2023-07-13T13:14:54;101188.97;;;20.48;100.00
16120;BME280;12670;53.502;10.252;2023-07-13T13:17:57;101196.69;;;20.29;100.00
16120;BME280;12670;53.502;10.252;2023-07-13T13:21:01;101198.56;;;20.64;100.00
16120;BME280;12670;53.502;10.252;2023-07-13T13:24:10;101195.78;;;20.76;100.00
16120;BME280;12670;53.502;10.252;2023-07-13T13:27:16;101189.56;;;20.98;100.00
16120;BME280;12670;53.502;10.252;2023-07-13T13:30:19;101180.75;;;20.96;100.00
16120;BME280;12670;53.502;10.252;2023-07-13T13:33:23;101179.88;;;20.96;100.00
16120;BME280;12670;53.502;10.252;2023-07-13T13:36:25;101168.59;;;21.02;100.00
16120;BME280;12670;53.502;10.252;2023-07-13T13:39:33;101176.94;;;21.10;100.00
16120;BME280;12670;53.502;10.252;2023-07-13T13:42:37;101176.00;;;21.11;100.00
16120;BME280;12670;53.502;10.252;2023-07-13T13:45:40;101182.47;;;21.20;100.00
16120;BME280;12670;53.502;10.252;2023-07-13T13:48:44;101187.44;;;21.48;100.00
16120;BME280;12670;53.502;10.252;2023-07-13T13:51:47;101181.66;;;21.64;98.65
16120;BME280;12670;53.502;10.252;2023-07-13T13:54:50;101178.63;;;22.01;100.00
16120;BME280;12670;53.502;10.252;2023-07-13T13:57:58;101185.63;;;21.92;99.35
16120;BME280;12670;53.502;10.252;2023-07-13T14:04:04;101192.56;;;21.63;96.68
16120;BME280;12670;53.502;10.252;2023-07-13T14:07:08;101187.16;;;21.51;91.38
16120;BME280;12670;53.502;10.252;2023-07-13T14:10:14;101186.44;;;21.38;93.39
16120;BME280;12670;53.502;10.252;2023-07-13T14:13:20;101181.25;;;21.58;96.31
16120;BME280;12670;53.502;10.252;2023-07-13T14:16:26;101174.56;;;21.41;93.15
16120;BME280;12670;53.502;10.252;2023-07-13T14:19:30;101178.34;;;21.49;89.81
16120;BME280;12670;53.502;10.252;2023-07-13T14:22:33;101170.59;;;21.34;88.40
16120;BME280;12670;53.502;10.252;2023-07-13T14:25:36;101172.75;;;20.84;87.93
16120;BME280;12670;53.502;10.252;2023-07-13T14:28:41;101165.78;;;21.03;88.71
16120;BME280;12670;53.502;10.252;2023-07-13T14:31:44;101169.09;;;21.07;90.26
16120;BME280;12670;53.502;10.252;2023-07-13T14:34:48;101170.50;;;20.66;87.54
16120;BME280;12670;53.502;10.252;2023-07-13T14:37:50;101170.81;;;21.19;88.63
16120;BME280;12670;53.502;10.252;2023-07-13T14:40:53;101174.50;;;21.18;90.34
16120;BME280;12670;53.502;10.252;2023-07-13T14:43:57;101173.31;;;21.34;90.55
16120;BME280;12670;53.502;10.252;2023-07-13T14:47:03;101177.56;;;21.14;90.90
16120;BME280;12670;53.502;10.252;2023-07-13T14:50:12;101179.47;;;21.47;90.72
16120;BME280;12670;53.502;10.252;2023-07-13T14:53:15;101178.09;;;21.52;89.63
16120;BME280;12670;53.502;10.252;2023-07-13T14:56:18;101179.19;;;21.61;89.30
16120;BME280;12670;53.502;10.252;2023-07-13T14:59:22;101175.41;;;21.64;88.17
16120;BME280;12670;53.502;10.252;2023-07-13T15:02:27;101172.44;;;21.55;86.21
16120;BME280;12670;53.502;10.252;2023-07-13T15:05:31;101176.63;;;21.48;87.83
16120;BME280;12670;53.502;10.252;2023-07-13T15:08:34;101183.44;;;21.75;90.90
16120;BME280;12670;53.502;10.252;2023-07-13T15:11:37;101178.97;;;21.53;88.79
16120;BME280;12670;53.502;10.252;2023-07-13T15:14:41;101176.75;;;21.58;88.39
16120;BME280;12670;53.502;10.252;2023-07-13T15:17:45;101184.22;;;21.43;84.29
16120;BME280;12670;53.502;10.252;2023-07-13T15:20:50;101179.06;;;21.63;80.60
16120;BME280;12670;53.502;10.252;2023-07-13T15:23:53;101183.25;;;21.55;84.91
16120;BME280;12670;53.502;10.252;2023-07-13T15:26:56;101183.00;;;21.59;82.48
16120;BME280;12670;53.502;10.252;2023-07-13T15:30:00;101178.19;;;21.62;85.36
16120;BME280;12670;53.502;10.252;2023-07-13T15:33:11;101184.28;;;21.87;84.74
16120;BME280;12670;53.502;10.252;2023-07-13T15:36:15;101179.34;;;22.14;87.50
16120;BME280;12670;53.502;10.252;2023-07-13T15:39:18;101170.50;;;22.01;85.07
16120;BME280;12670;53.502;10.252;2023-07-13T15:42:22;101190.09;;;21.82;83.68
16120;BME280;12670;53.502;10.252;2023-07-13T15:45:26;101177.81;;;21.78;85.42
16120;BME280;12670;53.502;10.252;2023-07-13T15:48:29;101172.31;;;21.46;87.77